Time;durP1;ratioP1;P1;durP2;ratioP2;P2;SDS_P1;SDS_P2;PMS_P1;PMS_P2;Temp;Humidity;BMP_temperature;BMP_pressure;BME280_temperature;BME280_humidity;BME280_pressure;Samples;Min_cycle;Max_cycle;Signal;HPM_P1;HPM_P2
2022/07/07 00:01:54;;;;;;;1999.90;999.90;;;;;;;19.52;85.39;95837.28;5017719;28;20270;-52
2022/07/07 00:04:19;;;;;;;1999.90;999.90;;;;;;;19.51;86.67;95833.72;5035101;28;20261;-53
2022/07/07 00:06:45;;;;;;;1999.90;999.90;;;;;;;19.48;84.50;95836.63;5017559;28;20209;-54
2022/07/07 00:09:10;;;;;;;1999.90;999.90;;;;;;;19.51;83.98;95836.50;5017632;28;20273;-54
2022/07/07 00:11:36;;;;;;;1999.90;999.90;;;;;;;19.48;84.01;95837.41;5034154;28;20218;-54
2022/07/07 00:14:02;;;;;;;1999.90;999.90;;;;;;;19.43;84.92;95835.22;5033996;28;20191;-53
2022/07/07 00:16:27;;;;;;;1999.90;999.90;;;;;;;19.39;84.19;95829.03;5033804;28;20174;-60
2022/07/07 00:18:53;;;;;;;1999.90;999.90;;;;;;;19.45;84.00;95827.25;5017473;28;20193;-66
2022/07/07 00:21:18;;;;;;;1999.90;999.90;;;;;;;19.48;83.50;95826.31;5033695;28;20201;-66
2022/07/07 00:23:44;;;;;;;1999.90;999.90;;;;;;;19.45;84.27;95832.78;5034020;28;20190;-66
2022/07/07 00:26:10;;;;;;;1999.90;999.90;;;;;;;19.42;84.25;95830.91;5034230;28;20203;-66
2022/07/07 00:28:35;;;;;;;1999.90;999.90;;;;;;;19.30;84.72;95820.63;5033755;28;20213;-67
2022/07/07 00:31:01;;;;;;;1999.90;999.90;;;;;;;19.35;83.56;95817.28;5033470;28;20190;-67
2022/07/07 00:33:27;;;;;;;1999.90;999.90;;;;;;;19.40;83.84;95822.25;5016975;28;20190;-68
2022/07/07 00:35:52;;;;;;;1999.90;999.90;;;;;;;19.36;83.26;95829.91;5034141;28;20187;-67
2022/07/07 00:38:18;;;;;;;1999.90;999.90;;;;;;;19.32;84.35;95820.97;5017410;28;20190;-51
2022/07/07 00:40:52;;;;;;;1999.90;999.90;;;;;;;19.32;83.04;95826.50;5032984;28;20190;-51
2022/07/07 00:43:17;;;;;;;1999.90;999.90;;;;;;;19.29;83.80;95824.63;5033497;28;20205;-51
2022/07/07 00:45:50;;;;;;;1999.90;999.90;;;;;;;19.27;83.40;95833.38;5017417;28;20202;-53
2022/07/07 00:48:18;;;;;;;1999.90;999.90;;;;;;;19.31;83.36;95833.28;5016775;28;20217;-52
2022/07/07 00:50:45;;;;;;;1999.90;999.90;;;;;;;19.26;83.69;95825.50;5017044;28;20197;-52
2022/07/07 00:53:11;;;;;;;1999.90;999.90;;;;;;;19.25;84.57;95815.66;5017024;28;20186;-61
2022/07/07 00:55:36;;;;;;;1999.90;999.90;;;;;;;19.22;84.32;95808.22;5016769;28;20190;-52
2022/07/07 00:58:02;;;;;;;1999.90;999.90;;;;;;;19.17;84.47;95817.09;5033208;28;20190;-54
2022/07/07 01:00:27;;;;;;;1999.90;999.90;;;;;;;19.07;84.65;95812.69;5033785;28;20281;-54
2022/07/07 01:02:52;;;;;;;1999.90;999.90;;;;;;;19.01;85.86;95815.25;5033571;28;20269;-50
2022/07/07 01:05:18;;;;;;;1999.90;999.90;;;;;;;19.09;86.06;95816.56;5016554;28;20203;-54
2022/07/07 01:07:45;;;;;;;1999.90;999.90;;;;;;;19.08;86.10;95814.25;5033147;28;20217;-55
2022/07/07 01:10:10;;;;;;;1999.90;999.90;;;;;;;18.98;86.69;95816.16;5033746;28;20186;-54
2022/07/07 01:12:38;;;;;;;1999.90;999.90;;;;;;;19.01;86.39;95820.03;5033275;28;20193;-61
2022/07/07 01:15:05;;;;;;;1999.90;999.90;;;;;;;19.10;87.10;95818.13;5017048;28;20293;-60
2022/07/07 01:17:30;;;;;;;1999.90;999.90;;;;;;;19.08;86.30;95820.56;5016673;28;20205;-60
2022/07/07 01:19:56;;;;;;;1999.90;999.90;;;;;;;19.04;86.18;95810.81;5032713;28;20210;-60
2022/07/07 01:22:26;;;;;;;1999.90;999.90;;;;;;;18.99;86.44;95811.41;5032849;28;20195;-60
2022/07/07 01:24:52;;;;;;;1999.90;999.90;;;;;;;18.96;85.23;95815.06;5016441;28;20226;-62
2022/07/07 01:27:19;;;;;;;1999.90;999.90;;;;;;;18.96;85.98;95806.75;5032914;28;20190;-60
2022/07/07 01:29:48;;;;;;;1999.90;999.90;;;;;;;18.88;86.20;95811.00;5016486;28;20187;-61
2022/07/07 01:32:14;;;;;;;1999.90;999.90;;;;;;;18.89;87.38;95807.00;5016416;28;20262;-57
2022/07/07 01:34:42;;;;;;;1999.90;999.90;;;;;;;18.83;88.07;95803.25;5016649;28;20206;-54
2022/07/07 01:37:07;;;;;;;1999.90;999.90;;;;;;;18.87;88.57;95814.97;5016391;28;20214;-53
2022/07/07 01:39:33;;;;;;;1999.90;999.90;;;;;;;18.86;88.66;95810.66;5032677;28;20221;-50
2022/07/07 01:41:59;;;;;;;1999.90;999.90;;;;;;;18.66;90.49;95799.06;5016343;28;20205;-54
2022/07/07 01:44:24;;;;;;;1999.90;999.90;;;;;;;18.62;91.05;95792.88;5033140;28;20228;-55
2022/07/07 01:46:50;;;;;;;1999.90;999.90;;;;;;;18.58;90.30;95798.53;5032493;28;20210;-52
2022/07/07 01:49:15;;;;;;;1999.90;999.90;;;;;;;18.59;90.56;95791.00;5032380;28;20194;-56
2022/07/07 01:51:41;;;;;;;1999.90;999.90;;;;;;;18.44;90.94;95793.47;5033643;28;20217;-63
2022/07/07 01:54:06;;;;;;;1999.90;999.90;;;;;;;18.48;91.26;95787.81;5019770;28;20198;-62
2022/07/07 01:56:32;;;;;;;1999.90;999.90;;;;;;;18.50;92.08;95785.38;5036118;28;20194;-62
2022/07/07 01:58:57;;;;;;;1999.90;999.90;;;;;;;18.42;91.17;95795.13;5036153;28;20182;-62
2022/07/07 02:01:23;;;;;;;1999.90;999.90;;;;;;;18.35;92.51;95795.34;5020002;28;20249;-63
2022/07/07 02:03:49;;;;;;;1999.90;999.90;;;;;;;18.33;92.94;95789.47;5019888;28;20273;-63
2022/07/07 02:06:14;;;;;;;1999.90;999.90;;;;;;;18.30;93.99;95787.56;5035843;28;20340;-64
2022/07/07 02:08:40;;;;;;;1999.90;999.90;;;;;;;18.26;94.08;95793.22;5019752;28;20197;-54
2022/07/07 02:11:14;;;;;;;1999.90;999.90;;;;;;;18.22;94.86;95786.25;5035549;28;20260;-55
2022/07/07 02:13:42;;;;;;;1999.90;999.90;;;;;;;18.14;95.16;95779.41;5019261;28;20201;-52
2022/07/07 02:16:07;;;;;;;1999.90;999.90;;;;;;;18.14;96.12;95782.16;5019303;28;20194;-56
2022/07/07 02:18:38;;;;;;;1999.90;999.90;;;;;;;18.11;97.64;95786.59;5035817;28;20208;-52
2022/07/07 02:21:04;;;;;;;1999.90;999.90;;;;;;;18.03;97.80;95784.50;5019128;28;20210;-53
2022/07/07 02:23:30;;;;;;;1999.90;999.90;;;;;;;17.91;98.51;95782.47;5019667;28;20187;-53
2022/07/07 02:25:55;;;;;;;1999.90;999.90;;;;;;;17.98;98.42;95782.25;5035788;28;20210;-64
2022/07/07 02:28:23;;;;;;;1999.90;999.90;;;;;;;18.04;98.36;95774.97;5035630;28;20270;-61
2022/07/07 02:30:51;;;;;;;1999.90;999.90;;;;;;;18.03;98.63;95784.50;5035615;28;20215;-61
2022/07/07 02:33:17;;;;;;;1999.90;999.90;;;;;;;17.99;98.46;95770.00;5035630;28;20206;-61
2022/07/07 02:35:43;;;;;;;1999.90;999.90;;;;;;;17.95;98.58;95772.09;5018863;28;20190;-60
2022/07/07 02:38:08;;;;;;;1999.90;999.90;;;;;;;17.99;97.80;95783.81;5018830;28;20179;-60
2022/07/07 02:40:33;;;;;;;1999.90;999.90;;;;;;;18.02;99.23;95777.38;5035467;28;20185;-60
2022/07/07 02:42:59;;;;;;;1999.90;999.90;;;;;;;18.00;98.88;95772.31;5018757;28;20193;-58
2022/07/07 02:45:24;;;;;;;1999.90;999.90;;;;;;;18.01;99.25;95775.84;5035368;28;20213;-58
2022/07/07 02:47:51;;;;;;;1999.90;999.90;;;;;;;18.01;97.85;95770.31;5035722;28;20546;-62
2022/07/07 02:50:16;;;;;;;1999.90;999.90;;;;;;;18.00;99.00;95775.09;5018485;28;20205;-63
2022/07/07 02:52:41;;;;;;;1999.90;999.90;;;;;;;17.97;98.99;95770.44;5035294;28;20194;-62
2022/07/07 02:55:07;;;;;;;1999.90;999.90;;;;;;;17.95;98.13;95766.56;5018839;28;20189;-62
2022/07/07 02:57:32;;;;;;;1999.90;999.90;;;;;;;17.95;98.28;95766.56;5018766;28;20182;-62
2022/07/07 02:59:58;;;;;;;1999.90;999.90;;;;;;;17.89;99.39;95768.34;5018738;28;20265;-62
2022/07/07 03:02:24;;;;;;;1999.90;999.90;;;;;;;17.91;99.13;95768.66;5018313;28;20281;-62
2022/07/07 03:04:49;;;;;;;1999.90;999.90;;;;;;;17.91;99.14;95771.41;5035138;28;20186;-67
2022/07/07 03:07:15;;;;;;;1999.90;999.90;;;;;;;17.90;99.23;95764.34;5035183;28;20190;-70
2022/07/07 03:09:40;;;;;;;1999.90;999.90;;;;;;;17.89;99.83;95763.56;5018196;28;20210;-68
2022/07/07 03:12:06;;;;;;;1999.90;999.90;;;;;;;17.95;99.94;95755.53;5035243;28;20225;-69
2022/07/07 03:14:31;;;;;;;1999.90;999.90;;;;;;;17.94;100.00;95748.44;5034550;28;20189;-68
2022/07/07 03:16:57;;;;;;;1999.90;999.90;;;;;;;17.89;100.00;95752.50;5034646;28;20192;-69
2022/07/07 03:19:22;;;;;;;1999.90;999.90;;;;;;;17.88;100.00;95748.19;5018282;28;20309;-67
2022/07/07 03:21:47;;;;;;;1999.90;999.90;;;;;;;17.84;100.00;95749.53;5018332;28;20190;-65
2022/07/07 03:24:13;;;;;;;1999.90;999.90;;;;;;;17.84;100.00;95744.00;5034674;28;20206;-54
2022/07/07 03:26:38;;;;;;;1999.90;999.90;;;;;;;17.80;100.00;95737.81;5034816;28;20221;-54
2022/07/07 03:29:04;;;;;;;1999.90;999.90;;;;;;;17.74;100.00;95734.06;5018533;28;20186;-54
2022/07/07 03:31:29;;;;;;;1999.90;999.90;;;;;;;17.70;100.00;95727.88;5034809;28;20198;-51
2022/07/07 03:33:54;;;;;;;1999.90;999.90;;;;;;;17.61;100.00;95727.72;5034863;28;20236;-54
2022/07/07 03:36:20;;;;;;;1999.90;999.90;;;;;;;17.63;100.00;95719.78;5034990;28;20194;-53
2022/07/07 03:38:45;;;;;;;1999.90;999.90;;;;;;;17.66;100.00;95724.44;5034925;28;20190;-66
2022/07/07 03:41:10;;;;;;;1999.90;999.90;;;;;;;17.65;100.00;95726.41;5034310;28;20212;-62
2022/07/07 03:43:36;;;;;;;1999.90;999.90;;;;;;;17.67;100.00;95723.22;5034078;28;20194;-62
2022/07/07 03:46:02;;;;;;;1999.90;999.90;;;;;;;17.69;100.00;95718.00;5034856;28;20202;-62
2022/07/07 03:48:29;;;;;;;1999.90;999.90;;;;;;;17.69;100.00;95720.78;5018021;28;20228;-63
2022/07/07 03:50:54;;;;;;;1999.90;999.90;;;;;;;17.69;100.00;95721.56;5017849;28;20182;-62
2022/07/07 03:53:20;;;;;;;1999.90;999.90;;;;;;;17.68;100.00;95713.72;5018270;28;20278;-63
2022/07/07 03:55:45;;;;;;;1999.90;999.90;;;;;;;17.60;100.00;95712.38;5017899;28;20195;-64
2022/07/07 03:58:10;;;;;;;1999.90;999.90;;;;;;;17.60;100.00;95717.91;5034212;28;20182;-63
2022/07/07 04:00:36;;;;;;;1999.90;999.90;;;;;;;17.62;100.00;95715.47;5063940;23;20252;-66
2022/07/07 04:03:01;;;;;;;1999.90;999.90;;;;;;;17.66;100.00;95716.16;5037415;28;20297;-66
2022/07/07 04:05:27;;;;;;;1999.90;999.90;;;;;;;17.63;100.00;95711.50;5037939;28;20209;-67
2022/07/07 04:07:52;;;;;;;1999.90;999.90;;;;;;;17.66;100.00;95716.16;5037236;28;20228;-67
2022/07/07 04:10:17;;;;;;;1999.90;999.90;;;;;;;17.66;100.00;95716.16;5037678;28;20189;-66
2022/07/07 04:12:43;;;;;;;1999.90;999.90;;;;;;;17.61;100.00;95711.94;5037198;28;20197;-67
2022/07/07 04:15:08;;;;;;;1999.90;999.90;;;;;;;17.64;100.00;95716.59;5036324;28;20188;-65
2022/07/07 04:17:34;;;;;;;1999.90;999.90;;;;;;;17.73;100.00;95732.50;5037271;28;20190;-59
2022/07/07 04:19:59;;;;;;;1999.90;999.90;;;;;;;17.71;100.00;95713.63;5037117;28;20212;-58
2022/07/07 04:22:24;;;;;;;1999.90;999.90;;;;;;;17.75;100.00;95717.03;5037127;28;20193;-58
2022/07/07 04:24:50;;;;;;;1999.90;999.90;;;;;;;17.82;100.00;95718.81;5054426;28;20236;-59
2022/07/07 04:27:15;;;;;;;1999.90;999.90;;;;;;;17.85;100.00;95715.91;5037429;28;20182;-57
2022/07/07 04:29:41;;;;;;;1999.90;999.90;;;;;;;17.86;100.00;95709.19;5037133;28;20194;-58
2022/07/07 04:32:07;;;;;;;1999.90;999.90;;;;;;;17.87;100.00;95719.03;5036649;28;20189;-59
2022/07/07 04:34:32;;;;;;;1999.90;999.90;;;;;;;17.91;100.00;95716.13;5036913;28;20193;-58
2022/07/07 04:36:59;;;;;;;1999.90;999.90;;;;;;;17.84;100.00;95702.53;5037276;28;20196;-60
2022/07/07 04:39:24;;;;;;;1999.90;999.90;;;;;;;17.90;100.00;95714.59;5036670;28;20231;-60
2022/07/07 04:41:50;;;;;;;1999.90;999.90;;;;;;;17.91;100.00;95705.09;5036588;28;20186;-60
2022/07/07 04:44:15;;;;;;;1999.90;999.90;;;;;;;18.00;100.00;95702.44;5037046;28;20272;-60
2022/07/07 04:46:41;;;;;;;1999.90;999.90;;;;;;;17.98;100.00;95696.56;5053462;28;20213;-59
2022/07/07 04:49:06;;;;;;;1999.90;999.90;;;;;;;18.06;100.00;95695.91;5036740;28;20190;-60
2022/07/07 04:51:31;;;;;;;1999.90;999.90;;;;;;;18.12;100.00;95701.66;5036616;28;20192;-60
2022/07/07 04:53:57;;;;;;;1999.90;999.90;;;;;;;18.15;100.00;95700.75;5054401;28;20192;-58
2022/07/07 04:56:22;;;;;;;1999.90;999.90;;;;;;;18.21;100.00;95696.22;5036652;28;20178;-60
2022/07/07 04:58:48;;;;;;;1999.90;999.90;;;;;;;18.22;100.00;95692.25;5036664;28;20178;-61
2022/07/07 05:01:13;;;;;;;1999.90;999.90;;;;;;;18.19;100.00;95695.88;5036583;28;20181;-60
2022/07/07 05:03:38;;;;;;;1999.90;999.90;;;;;;;18.33;100.00;95704.50;5036543;28;20190;-60
2022/07/07 05:06:04;;;;;;;1999.90;999.90;;;;;;;18.40;100.00;95703.53;5036471;28;20216;-60
2022/07/07 05:08:30;;;;;;;1999.90;999.90;;;;;;;18.44;100.00;95709.72;5036556;28;20186;-60
2022/07/07 05:10:56;;;;;;;1999.90;999.90;;;;;;;18.43;100.00;95708.16;5036147;28;20193;-69
2022/07/07 05:13:21;;;;;;;1999.90;999.90;;;;;;;18.53;100.00;95712.53;5036280;28;20212;-62
2022/07/07 05:15:48;;;;;;;1999.90;999.90;;;;;;;18.56;100.00;95711.66;5036418;28;20193;-64
2022/07/07 05:18:14;;;;;;;1999.90;999.90;;;;;;;18.68;100.00;95716.38;5036382;28;20197;-64
2022/07/07 05:20:39;;;;;;;1999.90;999.90;;;;;;;18.72;100.00;95717.06;5036009;28;20289;-63
2022/07/07 05:23:05;;;;;;;1999.90;999.90;;;;;;;18.85;99.28;95726.06;5036328;28;20205;-64
2022/07/07 05:25:30;;;;;;;1999.90;999.90;;;;;;;18.79;100.00;95722.31;5035782;28;20209;-64
2022/07/07 05:27:55;;;;;;;1999.90;999.90;;;;;;;18.55;96.23;95737.78;5036191;28;20182;-65
2022/07/07 05:30:21;;;;;;;1999.90;999.90;;;;;;;18.53;99.30;95731.91;5036144;28;20178;-59
2022/07/07 05:32:46;;;;;;;1999.90;999.90;;;;;;;18.64;98.26;95735.09;5036760;28;20185;-58
2022/07/07 05:35:12;;;;;;;1999.90;999.90;;;;;;;18.71;97.28;95734.84;5035967;28;20189;-58
2022/07/07 05:37:37;;;;;;;1999.90;999.90;;;;;;;18.61;93.73;95747.09;5036001;28;20284;-57
2022/07/07 05:40:03;;;;;;;1999.90;999.90;;;;;;;18.56;92.28;95744.84;5036538;28;20193;-57
2022/07/07 05:42:29;;;;;;;1999.90;999.90;;;;;;;18.57;92.95;95751.94;5035799;28;20197;-58
2022/07/07 05:44:54;;;;;;;1999.90;999.90;;;;;;;18.53;94.05;95748.50;5035933;28;20185;-58
2022/07/07 05:47:20;;;;;;;1999.90;999.90;;;;;;;18.57;94.18;95746.41;5036383;28;20177;-68
2022/07/07 05:49:45;;;;;;;1999.90;999.90;;;;;;;18.62;93.06;95749.38;5035827;28;20170;-68
2022/07/07 05:52:10;;;;;;;1999.90;999.90;;;;;;;18.69;93.37;95748.38;5035767;28;20214;-58
2022/07/07 05:54:36;;;;;;;1999.90;999.90;;;;;;;18.83;94.31;95748.66;5036344;28;20182;-58
2022/07/07 05:57:02;;;;;;;1999.90;999.90;;;;;;;18.90;94.13;95731.03;5035957;28;20185;-59
2022/07/07 05:59:27;;;;;;;1999.90;999.90;;;;;;;18.74;92.64;95745.81;5035791;28;20257;-56
2022/07/07 06:01:52;;;;;;;1999.90;999.90;;;;;;;18.73;93.32;95749.03;5035393;28;20284;-59
2022/07/07 06:04:18;;;;;;;1999.90;999.90;;;;;;;18.89;92.52;95743.31;5035807;28;20186;-58
2022/07/07 06:06:43;;;;;;;1999.90;999.90;;;;;;;18.79;92.94;95748.00;5035426;28;20300;-57
2022/07/07 06:09:08;;;;;;;1999.90;999.90;;;;;;;18.74;91.47;95745.03;5035615;28;20182;-58
2022/07/07 06:11:34;;;;;;;1999.90;999.90;;;;;;;18.86;91.85;95741.44;5035730;28;20186;-58
2022/07/07 06:13:59;;;;;;;1999.90;999.90;;;;;;;18.99;92.33;95736.66;5035499;28;20198;-59
2022/07/07 06:16:40;;;;;;;1999.90;999.90;;;;;;;19.01;91.15;95736.97;5035603;28;20182;-58
2022/07/07 06:19:06;;;;;;;1999.90;999.90;;;;;;;19.16;91.08;95744.31;5035464;28;20276;-58
2022/07/07 06:21:32;;;;;;;1999.90;999.90;;;;;;;19.20;91.23;95738.66;5035554;28;20192;-57
2022/07/07 06:23:57;;;;;;;1999.90;999.90;;;;;;;19.15;90.26;95750.31;5053120;28;20203;-67
2022/07/07 06:26:23;;;;;;;1999.90;999.90;;;;;;;19.13;90.04;95747.22;5035284;28;20205;-59
2022/07/07 06:28:48;;;;;;;1999.90;999.90;;;;;;;19.15;90.50;95747.53;5035472;28;20275;-70
2022/07/07 06:31:14;;;;;;;1999.90;999.90;;;;;;;19.14;91.08;95744.00;5035295;28;20186;-69
2022/07/07 06:33:39;;;;;;;1999.90;999.90;;;;;;;19.27;91.01;95741.22;5035279;28;20264;-69
2022/07/07 06:36:05;;;;;;;1999.90;999.90;;;;;;;19.18;91.22;95752.97;5036026;28;20189;-70
2022/07/07 06:38:30;;;;;;;1999.90;999.90;;;;;;;19.30;90.34;95748.59;5037669;28;20189;-70
2022/07/07 06:40:59;;;;;;;1999.90;999.90;;;;;;;19.39;90.24;95746.69;5038724;28;20197;-70
2022/07/07 06:43:25;;;;;;;1999.90;999.90;;;;;;;19.39;89.53;95745.91;5038595;28;20185;-61
2022/07/07 06:45:50;;;;;;;1999.90;999.90;;;;;;;19.42;90.44;95747.78;5038709;28;20205;-59
2022/07/07 06:48:16;;;;;;;1999.90;999.90;;;;;;;19.25;90.65;95746.44;5038402;28;20174;-59
2022/07/07 06:50:41;;;;;;;1999.90;999.90;;;;;;;19.26;91.01;95759.03;5038521;28;20212;-58
2022/07/07 06:53:07;;;;;;;1999.90;999.90;;;;;;;19.35;91.65;95745.28;5038662;28;20182;-59
2022/07/07 06:55:32;;;;;;;1999.90;999.90;;;;;;;19.46;90.92;95751.19;5038879;28;20186;-59
2022/07/07 06:57:58;;;;;;;1999.90;999.90;;;;;;;19.69;89.36;95747.94;5038394;28;20190;-59
2022/07/07 07:00:23;;;;;;;1999.90;999.90;;;;;;;19.53;88.76;95745.41;5038939;28;20185;-68
2022/07/07 07:02:49;;;;;;;1999.90;999.90;;;;;;;19.61;90.03;95752.22;5038312;28;20189;-65
2022/07/07 07:05:14;;;;;;;1999.90;999.90;;;;;;;19.78;88.54;95755.53;5038017;28;20205;-58
2022/07/07 07:07:40;;;;;;;1999.90;999.90;;;;;;;20.02;88.16;95754.59;5038350;28;20247;-58
2022/07/07 07:10:07;;;;;;;1999.90;999.90;;;;;;;20.08;86.34;95749.22;5038109;28;20181;-57
2022/07/07 07:12:32;;;;;;;1999.90;999.90;;;;;;;20.13;86.83;95749.44;5038162;28;20186;-57
2022/07/07 07:14:57;;;;;;;1999.90;999.90;;;;;;;20.31;84.86;95749.50;5038048;28;20190;-58
2022/07/07 07:17:23;;;;;;;1999.90;999.90;;;;;;;20.15;84.00;95752.53;5038193;28;20190;-57
2022/07/07 07:19:48;;;;;;;1999.90;999.90;;;;;;;20.47;83.92;95751.25;5038079;28;20208;-57
2022/07/07 07:22:14;;;;;;;1999.90;999.90;;;;;;;20.56;82.96;95752.03;5038263;28;20182;-67
2022/07/07 07:24:39;;;;;;;1999.90;999.90;;;;;;;20.54;83.15;95750.97;5038371;28;20188;-67
2022/07/07 07:27:05;;;;;;;1999.90;999.90;;;;;;;20.43;83.28;95759.69;5038020;28;20233;-67
2022/07/07 07:29:30;;;;;;;1999.90;999.90;;;;;;;20.28;83.67;95769.81;5037783;28;20185;-68
2022/07/07 07:31:55;;;;;;;1999.90;999.90;;;;;;;20.17;84.22;95760.41;5038101;28;20216;-68
2022/07/07 07:34:21;;;;;;;1999.90;999.90;;;;;;;20.32;84.57;95762.13;5038562;28;20276;-68
2022/07/07 07:36:46;;;;;;;1999.90;999.90;;;;;;;20.30;84.64;95764.59;5037648;28;20186;-68
2022/07/07 07:39:12;;;;;;;1999.90;999.90;;;;;;;20.22;87.34;95757.78;5037797;28;20230;-68
2022/07/07 07:41:38;;;;;;;1999.90;999.90;;;;;;;20.19;88.00;95753.16;5037882;28;20277;-65
2022/07/07 07:44:04;;;;;;;1999.90;999.90;;;;;;;20.14;87.84;95759.28;5037801;28;20186;-65
2022/07/07 07:46:29;;;;;;;1999.90;999.90;;;;;;;19.99;92.13;95749.94;5037246;28;20220;-66
2022/07/07 07:48:54;;;;;;;1999.90;999.90;;;;;;;20.04;94.06;95745.81;5037363;28;20185;-67
2022/07/07 07:51:20;;;;;;;1999.90;999.90;;;;;;;20.15;91.05;95752.53;5037593;28;20182;-66
2022/07/07 07:53:46;;;;;;;1999.90;999.90;;;;;;;20.39;89.33;95756.28;5037446;28;20197;-66
2022/07/07 07:56:11;;;;;;;1999.90;999.90;;;;;;;20.68;87.76;95753.16;5037269;28;20232;-56
2022/07/07 07:58:37;;;;;;;1999.90;999.90;;;;;;;21.12;85.62;95760.78;5037833;28;20277;-64
2022/07/07 08:01:03;;;;;;;1999.90;999.90;;;;;;;21.49;83.84;95753.97;5037741;28;20207;-57
2022/07/07 08:03:29;;;;;;;1999.90;999.90;;;;;;;21.97;80.27;95761.31;5054972;28;20265;-57
2022/07/07 08:05:54;;;;;;;1999.90;999.90;;;;;;;22.21;77.85;95762.16;5037300;28;20296;-58
2022/07/07 08:08:20;;;;;;;1999.90;999.90;;;;;;;22.16;76.77;95762.81;5037351;28;20213;-57
2022/07/07 08:10:45;;;;;;;1999.90;999.90;;;;;;;21.98;77.02;95768.44;5038158;28;20190;-57
2022/07/07 08:13:10;;;;;;;1999.90;999.90;;;;;;;21.95;79.24;95766.59;5037523;28;20181;-56
2022/07/07 08:15:36;;;;;;;1999.90;999.90;;;;;;;21.99;78.19;95769.97;5037364;28;20285;-60
2022/07/07 08:18:02;;;;;;;1999.90;999.90;;;;;;;21.52;77.44;95758.59;5037451;28;20190;-57
2022/07/07 08:20:29;;;;;;;1999.90;999.90;;;;;;;21.38;80.20;95758.47;5037237;28;20205;-57
2022/07/07 08:22:54;;;;;;;1999.90;999.90;;;;;;;21.82;79.76;95760.41;5037065;28;20277;-56
2022/07/07 08:25:20;;;;;;;1999.90;999.90;;;;;;;22.00;80.02;95756.84;5037247;28;20210;-57
2022/07/07 08:27:46;;;;;;;1999.90;999.90;;;;;;;22.13;80.66;95752.63;5036903;28;20185;-57
2022/07/07 08:30:11;;;;;;;1999.90;999.90;;;;;;;22.36;80.37;95751.91;5036957;28;20190;-56
2022/07/07 08:32:37;;;;;;;1999.90;999.90;;;;;;;22.21;80.56;95751.03;5037050;28;20182;-67
2022/07/07 08:35:04;;;;;;;1999.90;999.90;;;;;;;22.63;78.59;95755.81;5037004;28;20190;-58
2022/07/07 08:37:29;;;;;;;1999.90;999.90;;;;;;;23.18;75.38;95748.63;5036726;28;20189;-60
2022/07/07 08:39:54;;;;;;;1999.90;999.90;;;;;;;23.39;73.46;95753.13;5037183;28;20197;-60
2022/07/07 08:42:20;;;;;;;1999.90;999.90;;;;;;;23.64;72.14;95760.97;5037270;28;20214;-59
2022/07/07 08:44:46;;;;;;;1999.90;999.90;;;;;;;23.52;71.92;95762.03;5037267;28;20196;-59
2022/07/07 08:47:12;;;;;;;1999.90;999.90;;;;;;;23.65;70.92;95768.88;5037070;28;20174;-61
2022/07/07 08:49:37;;;;;;;1999.90;999.90;;;;;;;24.29;70.51;95766.19;5036621;28;20185;-60
2022/07/07 08:52:03;;;;;;;1999.90;999.90;;;;;;;24.73;66.57;95766.91;5054172;28;20178;-59
2022/07/07 08:54:28;;;;;;;1999.90;999.90;;;;;;;24.74;63.29;95762.84;5036520;28;20189;-70
2022/07/07 08:56:58;;;;;;;1999.90;999.90;;;;;;;25.29;62.41;95758.00;5036499;28;20639;-70
2022/07/07 08:59:24;;;;;;;1999.90;999.90;;;;;;;25.09;59.63;95763.56;5036617;28;20178;-70
2022/07/07 09:01:57;;;;;;;1999.90;999.90;;;;;;;24.91;61.10;95766.66;5035651;28;20190;-70
2022/07/07 09:04:23;;;;;;;1999.90;999.90;;;;;;;24.81;61.29;95773.63;5036644;28;20273;-68
2022/07/07 09:06:58;;;;;;;1999.90;999.90;;;;;;;24.74;60.73;95768.44;5036207;28;20300;-69
2022/07/07 09:09:36;;;;;;;1999.90;999.90;;;;;;;24.70;59.11;95773.47;5036397;28;20188;-64
2022/07/07 09:12:02;;;;;;;1999.90;999.90;;;;;;;24.60;60.01;95772.78;5036748;28;20189;-61
2022/07/07 09:14:35;;;;;;;1999.90;999.90;;;;;;;24.61;60.60;95779.13;5036807;28;20182;-68
2022/07/07 09:17:01;;;;;;;1999.90;999.90;;;;;;;24.70;59.54;95779.81;5036702;28;20182;-69
2022/07/07 09:19:26;;;;;;;1999.90;999.90;;;;;;;24.30;61.50;95779.66;5035996;28;20232;-68
2022/07/07 09:21:52;;;;;;;1999.90;999.90;;;;;;;23.93;62.84;95772.19;5036617;28;20277;-69
2022/07/07 09:24:18;;;;;;;1999.90;999.90;;;;;;;24.19;64.63;95773.13;5036229;28;20212;-68
2022/07/07 09:26:46;;;;;;;1999.90;999.90;;;;;;;23.90;71.43;95773.13;5036072;28;20649;-68
2022/07/07 09:29:15;;;;;;;1999.90;999.90;;;;;;;23.23;75.30;95775.91;5036546;28;20311;-66
2022/07/07 09:31:52;;;;;;;1999.90;999.90;;;;;;;22.57;85.35;95766.06;5036717;28;20186;-66
2022/07/07 09:34:19;;;;;;;1999.90;999.90;;;;;;;22.13;85.94;95774.88;5053370;28;20185;-66
2022/07/07 09:39:58;;;;;;;1999.90;999.90;;;;;;;21.31;100.00;95747.66;5053984;28;20196;-66
2022/07/07 09:42:29;;;;;;;1999.90;999.90;;;;;;;21.22;100.00;95733.75;5027112;28;20190;-66
2022/07/07 09:44:54;;;;;;;1999.90;999.90;;;;;;;21.03;100.00;95735.78;5036172;28;20247;-68
2022/07/07 09:47:21;;;;;;;1999.90;999.90;;;;;;;21.08;100.00;95739.94;5035894;28;20209;-66
2022/07/07 09:50:06;;;;;;;1999.90;999.90;;;;;;;21.02;100.00;95731.44;5036262;28;20185;-59
2022/07/07 09:52:36;;;;;;;1999.90;999.90;;;;;;;21.24;100.00;95732.06;5035735;28;20174;-58
2022/07/07 09:55:04;;;;;;;1999.90;999.90;;;;;;;21.27;99.02;95753.38;5035693;28;20245;-59
2022/07/07 09:57:30;;;;;;;1999.90;999.90;;;;;;;21.25;100.00;95727.28;5036248;28;20178;-58
2022/07/07 09:59:55;;;;;;;1999.90;999.90;;;;;;;21.39;100.00;95743.34;5035789;28;20178;-59
2022/07/07 10:02:25;;;;;;;1999.90;999.90;;;;;;;21.68;99.05;95741.56;5035886;28;20210;-58
2022/07/07 10:04:53;;;;;;;1999.90;999.90;;;;;;;21.67;91.90;95765.06;5035741;28;20186;-67
2022/07/07 10:07:27;;;;;;;1999.90;999.90;;;;;;;21.70;94.19;95764.13;5036433;28;20297;-63
2022/07/07 10:09:55;;;;;;;1999.90;999.90;;;;;;;21.93;92.47;95755.13;5036291;28;20186;-65
2022/07/07 10:12:26;;;;;;;1999.90;999.90;;;;;;;21.97;91.10;95766.13;5035834;28;20232;-65
2022/07/07 10:14:58;;;;;;;1999.90;999.90;;;;;;;21.77;91.30;95774.97;5039536;28;20213;-65
2022/07/07 10:17:25;;;;;;;1999.90;999.90;;;;;;;21.63;95.59;95767.22;5039363;28;20213;-65
2022/07/07 10:19:51;;;;;;;1999.90;999.90;;;;;;;21.47;100.00;95750.91;5038703;28;20202;-65
2022/07/07 10:22:17;;;;;;;1999.90;999.90;;;;;;;21.34;100.00;95739.16;5039103;28;20189;-66
2022/07/07 10:24:44;;;;;;;1999.90;999.90;;;;;;;21.06;100.00;95726.53;5039181;28;20182;-58
2022/07/07 10:27:14;;;;;;;1999.90;999.90;;;;;;;20.73;100.00;95733.88;5038893;28;20217;-58
2022/07/07 10:29:44;;;;;;;1999.90;999.90;;;;;;;20.68;100.00;95722.63;5039738;28;20177;-58
2022/07/07 10:32:18;;;;;;;1999.90;999.90;;;;;;;20.74;100.00;95696.56;5039333;28;20185;-58
2022/07/07 10:34:56;;;;;;;1999.90;999.90;;;;;;;20.91;100.00;95717.22;5039392;28;20253;-58
2022/07/07 10:37:23;;;;;;;1999.90;999.90;;;;;;;21.01;100.00;95724.34;5039221;28;20186;-58
2022/07/07 10:39:51;;;;;;;1999.90;999.90;;;;;;;21.41;100.00;95707.50;5039300;28;20185;-58
2022/07/07 10:42:16;;;;;;;1999.90;999.90;;;;;;;21.69;100.00;95729.22;5038740;28;20182;-58
2022/07/07 10:44:53;;;;;;;1999.90;999.90;;;;;;;21.90;99.77;95744.97;5038711;28;20178;-66
2022/07/07 10:47:18;;;;;;;1999.90;999.90;;;;;;;21.99;99.09;95733.81;5038298;28;20196;-66
2022/07/07 10:49:49;;;;;;;1999.90;999.90;;;;;;;22.00;95.27;95754.81;5038446;28;20182;-66
2022/07/07 10:52:19;;;;;;;1999.90;999.90;;;;;;;22.93;91.73;95752.69;5038883;28;20170;-66